Lethbridge County Airport
CYQL : now visible

Airfield :











YOU CAN JOIN US ON...

 
LOGIN :

Register | Disclaimer

   EN    FR    IT 

 









Legend :    VFR   Marginal VFR   IFR   Intensive IFR   Very Intensive IFR
Visi :
Ceiling :
>= 8 km
>= 3000ft
5 to 8 km
1000 to 3000 ft
1500m to 5 km
500 to 1000 ft
800 to 1500m
200 to 500 ft
< 800m
< 200 ft
Symbols :   Thunderstorms  Fog  Heavy snow  Heavy precipitations  Wind > 20 kt






- Airport Elevation : 3047 ft
- IATA code : YQL


CYQL - Lethbridge County

CURRENT METAR :
  • 231200Z 23009KT 60SM SKC M02/M06 A3005 RMK SLP201

EXPIRED METARs :
  • 231100Z AUTO 22008KT 9SM CLR M01/M06 A3005 RMK SLP197
  • 231000Z AUTO 22010KT 9SM CLR M00/M06 A3004 RMK SLP194
  • 230900Z AUTO 23009KT 9SM CLR 01/M06 A3003 RMK SLP190

TAF TAF CYQL
Valid from the 23 at 12:00 until the 24 at 00:00 UTC


231140Z 2312/2324 24008KT P6SM FEW100
BECMG 2316/2318 08006KT
FM232100 16012KT P6SM SCT100 RMK FCST BASED ON AUTO OBS. NXT FCST BY 231800Z
CZEG FIR / North America



MET'MAP, your aeronautical weather chart ! - Copyright ORBIFLY December 2007 - Disclaimer

ORBIFLY MET'MAP TEAM :

Programming & Development : Alexandra Zaïnal
Original concept : Baudouin d'Aumeries
Technical & hardware support : Manuel Goepfert
Assistance : Marc-Olivier Méhu




SOURCES & CREDITS :

   NOAA       Earth
Advisory